createdAt,value
2019-05-16T00:00:40.352Z,17.81
2019-05-16T00:03:12.026Z,17.77
2019-05-16T00:05:51.459Z,17.71
2019-05-16T00:08:17.845Z,17.62
2019-05-16T00:10:49.597Z,17.55
2019-05-16T00:13:24.281Z,17.51
2019-05-16T00:15:58.564Z,17.43
2019-05-16T00:18:29.537Z,17.36
2019-05-16T00:21:01.854Z,17.31
2019-05-16T00:23:33.435Z,17.37
2019-05-16T00:26:05.264Z,17.45
2019-05-16T00:28:38.031Z,17.49
2019-05-16T00:31:09.970Z,17.52
2019-05-16T00:33:42.174Z,17.48
2019-05-16T00:36:13.749Z,17.40
2019-05-16T00:38:45.549Z,17.32
2019-05-16T00:41:17.874Z,17.27
2019-05-16T00:43:49.197Z,17.26
2019-05-16T00:46:21.569Z,17.18
2019-05-16T00:48:53.398Z,17.13
2019-05-16T00:51:25.181Z,17.09
2019-05-16T00:53:58.857Z,17.10
2019-05-16T00:56:31.778Z,17.12
2019-05-16T00:59:07.778Z,17.12
2019-05-16T01:01:39.122Z,17.16
2019-05-16T01:04:11.577Z,17.20
2019-05-16T01:06:43.235Z,17.22
2019-05-16T01:09:15.042Z,17.16
2019-05-16T01:11:48.520Z,17.12
2019-05-16T01:14:20.764Z,17.03
2019-05-16T01:16:52.571Z,16.86
2019-05-16T01:19:24.544Z,16.67
2019-05-16T01:21:58.820Z,16.48
2019-05-16T01:24:29.893Z,16.38
2019-05-16T01:27:01.774Z,16.31
2019-05-16T01:29:33.978Z,16.26
2019-05-16T01:32:08.241Z,16.21
2019-05-16T01:34:39.507Z,16.12
2019-05-16T01:37:11.189Z,16.00
2019-05-16T01:39:43.032Z,15.93
2019-05-16T01:42:14.954Z,15.88
2019-05-16T01:44:48.716Z,15.83
2019-05-16T01:47:20.215Z,15.91
2019-05-16T01:49:52.181Z,15.96
2019-05-16T01:52:24.085Z,15.98
2019-05-16T01:54:55.752Z,15.99
2019-05-16T01:57:28.241Z,15.93
2019-05-16T01:59:59.652Z,15.86
2019-05-16T02:02:31.167Z,15.81
2019-05-16T02:05:02.930Z,15.82
2019-05-16T02:07:34.415Z,15.91
2019-05-16T02:10:08.729Z,16.00
2019-05-16T02:12:41.692Z,16.08
2019-05-16T02:15:14.888Z,16.19
2019-05-16T02:17:48.287Z,16.33
2019-05-16T02:20:19.542Z,16.38
2019-05-16T02:22:51.379Z,16.51
2019-05-16T02:25:23.313Z,16.54
2019-05-16T02:27:54.965Z,16.65
2019-05-16T02:30:26.939Z,16.71
2019-05-16T02:33:01.039Z,16.70
2019-05-16T02:35:32.601Z,16.81
2019-05-16T02:38:04.454Z,17.01
2019-05-16T02:40:36.162Z,17.23
2019-05-16T02:43:08.073Z,17.51
2019-05-16T02:46:01.451Z,17.77
2019-05-16T02:48:35.285Z,17.94
2019-05-16T02:51:06.963Z,18.23
2019-05-16T02:53:41.680Z,18.44
2019-05-16T02:56:12.598Z,18.56
2019-05-16T02:58:45.166Z,18.90
2019-05-16T03:01:21.359Z,19.46
2019-05-16T03:03:52.057Z,20.04
2019-05-16T03:06:25.711Z,20.59
2019-05-16T03:09:04.688Z,20.89
2019-05-16T03:11:31.784Z,20.98
2019-05-16T03:14:05.424Z,20.67
2019-05-16T03:20:10.543Z,22.20
2019-05-16T03:22:41.862Z,23.35
2019-05-16T03:25:13.650Z,23.40
2019-05-16T03:27:45.885Z,23.46
2019-05-16T03:30:17.312Z,24.07
2019-05-16T03:32:54.115Z,24.40
2019-05-16T03:35:24.544Z,24.53
2019-05-16T03:38:00.655Z,25.30
2019-05-16T03:40:31.379Z,26.44
2019-05-16T03:43:03.029Z,26.58
2019-05-16T03:45:34.922Z,26.66
2019-05-16T03:48:06.639Z,26.22
2019-05-16T03:50:41.038Z,25.65
2019-05-16T03:53:12.114Z,25.45
2019-05-16T03:55:43.047Z,25.49
2019-05-16T03:58:14.914Z,25.91
2019-05-16T04:00:53.217Z,27.71
2019-05-16T04:03:28.528Z,28.71
2019-05-16T04:06:01.240Z,30.06
2019-05-16T04:08:32.158Z,31.39
2019-05-16T04:11:03.013Z,32.37
2019-05-16T04:13:35.077Z,31.40
2019-05-16T04:16:06.836Z,31.53
2019-05-16T04:18:41.674Z,32.48
2019-05-16T04:21:12.270Z,32.19
2019-05-16T04:23:44.177Z,31.54
2019-05-16T04:26:15.767Z,31.10
2019-05-16T04:28:47.727Z,30.59
2019-05-16T04:31:21.973Z,30.47
2019-05-16T04:33:54.109Z,32.33
2019-05-16T04:36:25.762Z,34.39
2019-05-16T04:38:58.007Z,35.37
2019-05-16T04:41:31.335Z,35.49
2019-05-16T04:44:04.844Z,36.43
2019-05-16T04:46:36.793Z,36.75
2019-05-16T04:49:10.923Z,37.51
2019-05-16T04:51:41.596Z,36.33
2019-05-16T04:54:13.463Z,35.91
2019-05-16T04:56:45.061Z,35.52
2019-05-16T04:59:20.854Z,36.03
2019-05-16T05:01:51.535Z,37.55
2019-05-16T05:04:23.234Z,37.63
2019-05-16T05:06:56.041Z,39.00
2019-05-16T05:09:27.793Z,38.90
2019-05-16T05:12:04.094Z,38.57
2019-05-16T05:14:34.338Z,37.50
2019-05-16T05:17:06.234Z,37.51
2019-05-16T05:19:38.074Z,37.90
2019-05-16T05:22:10.437Z,38.07
2019-05-16T05:24:42.215Z,39.23
2019-05-16T05:27:13.930Z,39.66
2019-05-16T05:29:46.198Z,40.30
2019-05-16T05:32:20.047Z,39.44
2019-05-16T05:34:51.462Z,38.40
2019-05-16T05:37:23.021Z,38.85
2019-05-16T05:39:54.825Z,39.75
2019-05-16T05:42:26.525Z,41.21
2019-05-16T05:45:00.271Z,39.92
2019-05-16T05:47:31.784Z,40.27
2019-05-16T05:50:04.889Z,40.10
2019-05-16T05:52:36.384Z,42.82
2019-05-16T05:55:10.570Z,43.25
2019-05-16T05:57:41.987Z,43.04
2019-05-16T06:00:14.288Z,42.23
2019-05-16T06:02:46.014Z,40.41
2019-05-16T06:05:20.172Z,37.99
2019-05-16T06:07:51.341Z,38.75
2019-05-16T06:10:23.545Z,38.70
2019-05-16T06:12:55.506Z,40.25
2019-05-16T06:15:27.269Z,39.75
2019-05-16T06:18:00.296Z,39.84
2019-05-16T06:20:32.102Z,37.80
2019-05-16T06:23:03.833Z,37.75
2019-05-16T06:25:35.926Z,39.91
2019-05-16T06:28:07.704Z,39.77
2019-05-16T06:30:40.796Z,38.89
2019-05-16T06:33:12.480Z,37.96
2019-05-16T06:35:44.429Z,37.40
2019-05-16T06:38:15.964Z,37.42
2019-05-16T06:40:49.898Z,37.33
2019-05-16T06:43:22.236Z,36.37
2019-05-16T06:45:53.922Z,37.05
2019-05-16T06:48:25.635Z,36.27
2019-05-16T06:51:02.427Z,37.30
2019-05-16T06:53:31.411Z,38.07
2019-05-16T06:56:03.167Z,36.55
2019-05-16T06:58:47.430Z,37.72
2019-05-16T07:01:10.377Z,36.28
2019-05-16T07:03:41.993Z,37.07
2019-05-16T07:06:29.714Z,36.41
2019-05-16T07:08:47.012Z,37.88
2019-05-16T07:11:20.113Z,37.45
2019-05-16T07:13:52.245Z,38.05
2019-05-16T07:16:24.051Z,37.35
2019-05-16T07:18:55.852Z,36.53
2019-05-16T07:21:31.085Z,36.86
2019-05-16T07:24:01.568Z,36.80
2019-05-16T07:26:32.896Z,35.98
2019-05-16T07:29:05.004Z,35.79
2019-05-16T07:31:36.620Z,36.21
2019-05-16T07:34:10.771Z,37.07
2019-05-16T07:36:41.989Z,33.43
2019-05-16T07:39:13.701Z,30.57
2019-05-16T07:41:44.881Z,30.44
2019-05-16T07:44:16.112Z,31.33
2019-05-16T07:46:47.330Z,32.70
2019-05-16T07:49:19.775Z,34.14
2019-05-16T07:51:51.513Z,35.41
2019-05-16T07:54:23.175Z,34.66
2019-05-16T07:56:58.786Z,34.83
2019-05-16T07:59:29.801Z,35.02
2019-05-16T08:02:00.961Z,35.90
2019-05-16T08:04:33.762Z,35.82
2019-05-16T08:07:05.843Z,35.17
2019-05-16T08:09:39.621Z,36.10
2019-05-16T08:12:10.716Z,34.50
2019-05-16T08:14:42.519Z,35.76
2019-05-16T08:17:13.540Z,34.30
2019-05-16T08:19:44.899Z,33.41
2019-05-16T08:22:16.976Z,32.11
2019-05-16T08:24:50.527Z,30.90
2019-05-16T08:27:22.116Z,29.84
2019-05-16T08:29:53.553Z,28.95
2019-05-16T08:32:24.817Z,28.54
2019-05-16T08:34:56.296Z,28.32
2019-05-16T08:40:01.404Z,27.65
2019-05-16T08:42:34.207Z,27.40
2019-05-16T08:45:11.977Z,27.48
2019-05-16T08:47:42.621Z,27.29
2019-05-16T08:50:14.909Z,27.49
2019-05-16T08:52:46.899Z,27.03
2019-05-16T08:55:21.510Z,26.85
2019-05-16T08:57:52.969Z,26.62
2019-05-16T09:00:24.362Z,26.37
2019-05-16T09:02:55.844Z,26.52
2019-05-16T09:05:31.300Z,26.57
2019-05-16T09:08:01.069Z,26.30
2019-05-16T09:10:34.258Z,27.96
2019-05-16T09:13:07.125Z,26.32
2019-05-16T09:15:39.110Z,26.49
2019-05-16T09:18:10.620Z,26.32
2019-05-16T09:18:36.427Z,26.32
2019-05-16T09:20:43.049Z,26.19
2019-05-16T09:23:14.707Z,26.03
2019-05-16T09:25:48.924Z,26.07
2019-05-16T09:28:19.521Z,26.18
2019-05-16T09:30:51.274Z,26.30
2019-05-16T09:33:22.933Z,26.26
2019-05-16T09:35:57.293Z,26.29
2019-05-16T09:38:28.669Z,26.34
2019-05-16T09:41:00.635Z,26.22
2019-05-16T09:43:32.353Z,26.59
2019-05-16T09:46:04.317Z,26.61
2019-05-16T09:48:37.590Z,26.41
2019-05-16T09:51:08.448Z,26.29
2019-05-16T09:53:40.074Z,26.25
2019-05-16T09:56:12.042Z,26.21
2019-05-16T09:58:43.580Z,26.21
2019-05-16T10:01:17.442Z,26.22
2019-05-16T10:03:48.796Z,26.22
2019-05-16T10:06:20.530Z,26.33
2019-05-16T10:08:52.212Z,26.24
2019-05-16T10:11:30.245Z,26.45
2019-05-16T10:13:57.412Z,26.52
2019-05-16T10:16:28.969Z,26.45
2019-05-16T10:19:00.721Z,26.47
2019-05-16T10:21:32.374Z,26.46
2019-05-16T10:24:07.120Z,26.53
2019-05-16T10:26:38.245Z,26.54
2019-05-16T10:29:10.871Z,26.50
2019-05-16T10:31:49.352Z,26.61
2019-05-16T10:34:17.369Z,26.63
2019-05-16T10:36:49.166Z,26.37
2019-05-16T10:39:20.757Z,26.66
2019-05-16T10:41:52.986Z,26.62
2019-05-16T10:44:24.548Z,26.71
2019-05-16T10:46:57.237Z,26.75
2019-05-16T10:49:36.787Z,26.79
2019-05-16T10:52:02.441Z,26.74
2019-05-16T10:54:36.808Z,26.79
2019-05-16T10:57:08.243Z,26.89
2019-05-16T11:00:01.938Z,26.79
2019-05-16T11:02:13.700Z,26.87
2019-05-16T11:04:57.447Z,26.71
2019-05-16T11:07:18.909Z,26.82
2019-05-16T11:09:58.306Z,26.94
2019-05-16T11:12:43.242Z,26.83
2019-05-16T11:14:57.797Z,26.73
2019-05-16T11:17:29.269Z,26.78
2019-05-16T11:20:00.960Z,26.74
2019-05-16T11:22:32.496Z,26.77
2019-05-16T11:25:18.424Z,26.88
2019-05-16T11:27:38.147Z,26.80
2019-05-16T11:30:10.596Z,26.83
2019-05-16T11:32:42.354Z,26.80
2019-05-16T11:35:17.131Z,26.95
2019-05-16T11:37:48.225Z,26.95
2019-05-16T11:40:21.132Z,26.99
2019-05-16T11:43:06.514Z,26.98
2019-05-16T11:45:27.201Z,26.97
2019-05-16T11:47:58.796Z,27.05
2019-05-16T11:50:30.623Z,27.08
2019-05-16T11:53:02.121Z,27.05
2019-05-16T11:55:36.919Z,27.06
2019-05-16T11:58:07.292Z,27.12
2019-05-16T12:00:38.827Z,27.11
2019-05-16T12:03:11.257Z,27.01
2019-05-16T12:05:43.315Z,27.00
2019-05-16T12:08:17.193Z,27.02
2019-05-16T12:10:49.837Z,27.03
2019-05-16T12:13:28.240Z,27.09
2019-05-16T12:15:56.405Z,27.09
2019-05-16T12:18:30.231Z,27.05
2019-05-16T12:21:04.110Z,27.25
2019-05-16T12:23:37.278Z,27.25
2019-05-16T12:26:09.074Z,27.16
2019-05-16T12:28:40.820Z,27.18
2019-05-16T12:31:17.460Z,27.12
2019-05-16T12:33:49.932Z,27.26
2019-05-16T12:36:21.738Z,27.17
2019-05-16T12:38:53.420Z,27.20
2019-05-16T12:41:28.499Z,27.27
2019-05-16T12:43:58.381Z,27.24
2019-05-16T12:46:30.237Z,27.29
2019-05-16T12:49:01.741Z,27.30
2019-05-16T12:51:33.535Z,27.19
2019-05-16T12:54:07.395Z,27.19
2019-05-16T12:56:38.910Z,27.14
2019-05-16T12:59:10.721Z,27.08
2019-05-16T13:01:42.515Z,27.20
2019-05-16T13:04:13.935Z,27.27
2019-05-16T13:06:47.098Z,27.30
2019-05-16T13:09:18.788Z,27.27
2019-05-16T13:11:50.578Z,27.13
2019-05-16T13:14:27.954Z,27.36
2019-05-16T13:17:02.505Z,27.30
2019-05-16T13:19:34.816Z,27.35
2019-05-16T13:22:16.924Z,27.31
2019-05-16T13:24:48.079Z,27.26
2019-05-16T13:27:23.031Z,27.26
2019-05-16T13:29:53.334Z,27.38
2019-05-16T13:32:27.053Z,27.37
2019-05-16T13:34:59.316Z,27.27
2019-05-16T13:37:30.960Z,27.33
2019-05-16T13:40:02.668Z,27.42
2019-05-16T13:42:36.971Z,27.43
2019-05-16T13:45:09.739Z,27.45
2019-05-16T13:47:41.454Z,27.37
2019-05-16T13:50:13.311Z,27.36
2019-05-16T13:52:44.395Z,27.34
2019-05-16T13:55:16.738Z,27.12
2019-05-16T13:57:48.603Z,27.28
2019-05-16T14:00:21.713Z,27.34
2019-05-16T14:02:53.260Z,27.30
2019-05-16T14:05:26.823Z,27.37
2019-05-16T14:07:58.552Z,27.39
2019-05-16T14:10:30.168Z,27.30
2019-05-16T14:13:01.951Z,27.32
2019-05-16T14:15:36.522Z,27.34
2019-05-16T14:18:07.876Z,27.35
2019-05-16T14:20:39.552Z,27.36
2019-05-16T14:23:11.365Z,27.37
2019-05-16T14:25:47.683Z,27.37
2019-05-16T14:28:18.614Z,27.34
2019-05-16T14:30:50.293Z,27.22
2019-05-16T14:33:22.023Z,27.23
2019-05-16T14:35:56.304Z,27.16
2019-05-16T14:38:27.253Z,27.16
2019-05-16T14:40:58.929Z,27.10
2019-05-16T14:43:30.019Z,27.14
2019-05-16T14:46:01.668Z,27.10
2019-05-16T14:48:33.540Z,27.11
2019-05-16T14:51:05.074Z,27.07
2019-05-16T14:53:37.967Z,27.05
2019-05-16T14:56:10.033Z,27.08
2019-05-16T14:58:42.041Z,27.05
2019-05-16T15:01:13.461Z,27.04
2019-05-16T15:03:47.305Z,26.99
2019-05-16T15:06:18.569Z,27.03
2019-05-16T15:08:50.554Z,27.00
2019-05-16T15:11:22.162Z,26.94
2019-05-16T15:13:53.979Z,26.93
2019-05-16T15:16:27.334Z,26.86
2019-05-16T15:18:59.392Z,26.84
2019-05-16T15:21:30.837Z,26.80
2019-05-16T15:24:02.901Z,26.79
2019-05-16T15:26:34.784Z,26.71
2019-05-16T15:29:08.095Z,26.61
2019-05-16T15:31:39.838Z,26.67
2019-05-16T15:34:11.401Z,26.59
2019-05-16T15:36:46.729Z,26.56
2019-05-16T15:39:17.903Z,26.50
2019-05-16T15:41:49.411Z,26.45
2019-05-16T15:44:21.470Z,26.37
2019-05-16T15:46:53.366Z,26.33
2019-05-16T15:49:26.545Z,26.28
2019-05-16T15:51:58.666Z,26.24
2019-05-16T15:54:31.627Z,26.20
2019-05-16T15:57:06.561Z,26.10
2019-05-16T15:59:37.791Z,26.04
2019-05-16T16:02:09.127Z,25.94
2019-05-16T16:04:40.455Z,25.88
2019-05-16T16:07:12.310Z,25.63
2019-05-16T16:09:43.766Z,25.70
2019-05-16T16:12:17.008Z,25.61
2019-05-16T16:14:48.968Z,25.55
2019-05-16T16:17:21.182Z,25.45
2019-05-16T16:19:53.276Z,25.37
2019-05-16T16:22:26.910Z,25.31
2019-05-16T16:24:58.750Z,25.26
2019-05-16T16:27:30.384Z,25.20
2019-05-16T16:30:02.254Z,25.13
2019-05-16T16:32:37.612Z,25.07
2019-05-16T16:35:08.586Z,24.99
2019-05-16T16:37:40.376Z,24.93
2019-05-16T16:40:12.819Z,24.86
2019-05-16T16:42:44.398Z,24.75
2019-05-16T16:45:16.930Z,24.70
2019-05-16T16:47:48.779Z,24.62
2019-05-16T16:50:20.796Z,24.55
2019-05-16T16:52:52.800Z,24.50
2019-05-16T16:55:27.399Z,24.42
2019-05-16T16:57:59.628Z,24.35
2019-05-16T17:00:31.080Z,24.22
2019-05-16T17:03:06.437Z,24.08
2019-05-16T17:05:50.093Z,23.98
2019-05-16T17:09:13.167Z,23.85
2019-05-16T17:11:51.486Z,23.76
2019-05-16T17:14:23.108Z,23.66
2019-05-16T17:16:57.362Z,23.58
2019-05-16T17:19:28.458Z,23.41
2019-05-16T17:22:11.821Z,23.27
2019-05-16T17:24:33.736Z,23.08
2019-05-16T17:27:07.740Z,23.07
2019-05-16T17:29:39.186Z,22.97
2019-05-16T17:32:10.840Z,22.90
2019-05-16T17:34:42.604Z,22.73
2019-05-16T17:37:14.093Z,22.69
2019-05-16T17:39:47.467Z,22.68
2019-05-16T17:42:19.314Z,22.65
2019-05-16T17:44:51.442Z,22.60
2019-05-16T17:47:22.854Z,22.56
2019-05-16T17:49:54.815Z,22.46
2019-05-16T17:52:27.426Z,22.44
2019-05-16T17:54:59.526Z,22.39
2019-05-16T17:57:31.230Z,22.25
2019-05-16T18:00:03.854Z,22.24
2019-05-16T18:02:37.410Z,22.16
2019-05-16T18:05:11.521Z,22.06
2019-05-16T18:07:43.271Z,21.94
2019-05-16T18:10:15.558Z,21.91
2019-05-16T18:12:47.999Z,21.83
2019-05-16T18:15:21.474Z,21.79
2019-05-16T18:17:53.312Z,21.64
2019-05-16T18:20:26.575Z,21.64
2019-05-16T18:22:58.686Z,21.58
2019-05-16T18:25:29.770Z,21.55
2019-05-16T18:28:01.337Z,21.41
2019-05-16T18:30:36.688Z,21.41
2019-05-16T18:33:09.512Z,21.41
2019-05-16T18:35:41.097Z,21.41
2019-05-16T18:38:12.936Z,21.37
2019-05-16T18:40:47.167Z,21.32
2019-05-16T18:43:21.233Z,21.27
2019-05-16T18:45:51.604Z,21.19
2019-05-16T18:48:23.598Z,21.19
2019-05-16T18:50:57.285Z,21.12
2019-05-16T18:53:28.925Z,21.08
2019-05-16T18:56:00.281Z,21.05
2019-05-16T18:58:31.996Z,21.02
2019-05-16T19:01:06.474Z,20.95
2019-05-16T19:03:37.766Z,20.97
2019-05-16T19:06:09.629Z,21.00
2019-05-16T19:08:41.564Z,20.95
2019-05-16T19:11:13.318Z,20.87
2019-05-16T19:13:47.302Z,20.77
2019-05-16T19:16:18.554Z,20.73
2019-05-16T19:18:50.101Z,20.71
2019-05-16T19:21:22.713Z,20.69
2019-05-16T19:23:56.264Z,20.66
2019-05-16T19:26:27.960Z,20.61
2019-05-16T19:28:59.772Z,20.58
2019-05-16T19:31:33.089Z,20.48
2019-05-16T19:34:06.982Z,20.46
2019-05-16T19:36:39.355Z,20.42
2019-05-16T19:39:11.451Z,20.40
2019-05-16T19:41:43.470Z,20.38
2019-05-16T19:44:16.813Z,20.37
2019-05-16T19:46:48.852Z,20.33
2019-05-16T19:49:20.895Z,20.32
2019-05-16T19:51:53.272Z,20.28
2019-05-16T19:54:27.002Z,20.23
2019-05-16T19:56:58.729Z,20.12
2019-05-16T19:59:30.708Z,20.11
2019-05-16T20:02:02.756Z,20.07
2019-05-16T20:04:36.617Z,20.02
2019-05-16T20:07:08.594Z,19.98
2019-05-16T20:09:40.593Z,19.94
2019-05-16T20:12:12.184Z,19.91
2019-05-16T20:14:44.175Z,19.90
2019-05-16T20:17:16.161Z,19.89
2019-05-16T20:19:49.462Z,19.87
2019-05-16T20:22:21.013Z,19.87
2019-05-16T20:24:52.816Z,19.83
2019-05-16T20:27:27.277Z,19.77
2019-05-16T20:29:59.454Z,19.70
2019-05-16T20:32:32.756Z,19.68
2019-05-16T20:35:08.460Z,19.66
2019-05-16T20:37:37.802Z,19.60
2019-05-16T20:40:12.538Z,19.59
2019-05-16T20:42:43.575Z,19.57
2019-05-16T20:45:16.931Z,19.48
2019-05-16T20:47:48.729Z,19.44
2019-05-16T20:50:20.599Z,19.46
2019-05-16T20:52:52.047Z,19.45
2019-05-16T20:55:23.903Z,19.39
2019-05-16T20:57:57.477Z,19.34
2019-05-16T21:00:29.215Z,19.31
2019-05-16T21:03:01.034Z,19.33
2019-05-16T21:05:32.892Z,19.27
2019-05-16T21:08:06.504Z,19.24
2019-05-16T21:10:39.507Z,19.15
2019-05-16T21:13:12.589Z,19.12
2019-05-16T21:15:44.586Z,19.09
2019-05-16T21:18:16.728Z,19.07
2019-05-16T21:20:48.380Z,19.01
2019-05-16T21:23:20.130Z,19.01
2019-05-16T21:25:51.814Z,18.96
2019-05-16T21:28:23.632Z,18.92
2019-05-16T21:30:56.834Z,18.90
2019-05-16T21:33:28.922Z,18.87
2019-05-16T21:36:00.818Z,18.83
2019-05-16T21:38:32.935Z,18.80
2019-05-16T21:41:07.047Z,18.81
2019-05-16T21:43:38.262Z,18.72
2019-05-16T21:46:10.058Z,18.70
2019-05-16T21:48:41.869Z,18.70
2019-05-16T21:51:13.734Z,18.69
2019-05-16T21:53:47.190Z,18.62
2019-05-16T21:56:18.711Z,18.55
2019-05-16T21:58:50.987Z,18.50
2019-05-16T22:01:23.853Z,18.45
2019-05-16T22:03:56.758Z,18.43
2019-05-16T22:06:28.824Z,18.36
2019-05-16T22:09:00.653Z,18.27
2019-05-16T22:11:32.542Z,18.22
2019-05-16T22:14:03.879Z,18.16
2019-05-16T22:16:37.352Z,18.14
2019-05-16T22:19:08.998Z,18.17
2019-05-16T22:21:41.696Z,18.11
2019-05-16T22:24:17.051Z,18.06
2019-05-16T22:26:48.996Z,18.01
2019-05-16T22:29:20.763Z,17.98
2019-05-16T22:31:52.628Z,17.95
2019-05-16T22:34:26.425Z,17.88
2019-05-16T22:36:58.078Z,17.90
2019-05-16T22:39:30.068Z,17.91
2019-05-16T22:42:01.813Z,17.95
2019-05-16T22:44:33.666Z,17.89
2019-05-16T22:47:06.686Z,17.85
2019-05-16T22:49:38.542Z,17.82
2019-05-16T22:52:10.468Z,17.76
2019-05-16T22:54:42.326Z,17.76
2019-05-16T22:57:17.495Z,17.69
2019-05-16T22:59:48.781Z,17.63
2019-05-16T23:02:20.571Z,17.61
2019-05-16T23:04:52.246Z,17.60
2019-05-16T23:07:27.454Z,17.56
2019-05-16T23:09:58.552Z,17.50
2019-05-16T23:12:30.810Z,17.46
2019-05-16T23:15:02.882Z,17.43
2019-05-16T23:17:37.292Z,17.40
2019-05-16T23:20:08.103Z,17.33
2019-05-16T23:22:40.170Z,17.32
2019-05-16T23:25:12.333Z,17.28
2019-05-16T23:27:43.508Z,17.27
2019-05-16T23:30:17.808Z,17.26
2019-05-16T23:32:49.450Z,17.22
2019-05-16T23:35:21.444Z,17.25
2019-05-16T23:37:53.004Z,17.25
2019-05-16T23:40:25.028Z,17.27
2019-05-16T23:42:56.975Z,17.23
2019-05-16T23:45:28.879Z,17.23
2019-05-16T23:48:00.819Z,17.20
2019-05-16T23:50:32.374Z,17.24
2019-05-16T23:53:07.015Z,17.20
2019-05-16T23:55:37.944Z,17.19
2019-05-16T23:58:09.959Z,17.17
